Aviation Digital Data Service (ADDS)

Output produced by METARs form (1157 UTC 24 May 2022)
found at http://www.aviationweather.gov/metar/data/
 
VTSS 241130Z 00000KT 9999 FEW020 32/25 Q1008 NOSIG
VTSS 241100Z 06006KT 020V080 9999 FEW020 32/25 Q1007 NOSIG
VTSS 241030Z 05007KT 270V080 9999 FEW020 33/25 Q1007 NOSIG
VTSS 241000Z 30008KT 280V010 9999 SCT020 35/22 Q1007 NOSIG
VTSS 240930Z 26006KT 230V310 9999 SCT020 SCT100 35/23 Q1007 NOSIG
VTSS 240900Z VRB05KT 9999 SCT020 SCT100 36/22 Q1007 NOSIG
VTSS 240830Z 30004KT 9999 SCT020 SCT100 35/22 Q1007 NOSIG
VTSS 240800Z VRB05KT 9999 SCT020 SCT100 36/22 Q1007 NOSIG
VTSS 240730Z 34003KT 270V080 9999 SCT020 SCT100 35/22 Q1007 NOSIG
VTSS 240700Z 25004KT 190V280 9999 SCT020 34/22 Q1007 NOSIG
VTSS 240630Z 28007KT 250V310 9999 SCT020 34/22 Q1008 NOSIG
VTSS 240600Z VRB04KT 9999 SCT020 35/23 Q1008 NOSIG
VTSS 240530Z 27005KT 230V310 9999 SCT020 34/22 Q1009 NOSIG
VTSS 240500Z 00000KT 9999 SCT020 34/23 Q1009 NOSIG
VTSS 240430Z 00000KT 9999 FEW020 33/23 Q1009 NOSIG
VTSS 240400Z VRB03KT 9999 FEW020 33/22 Q1010 NOSIG
VTSS 240330Z 00000KT 9999 FEW020 33/22 Q1010 NOSIG
VTSS 240300Z VRB02KT 9999 FEW020 32/22 Q1010 NOSIG
VTSS 240230Z VRB02KT 9999 FEW020 31/24 Q1010 NOSIG
VTSS 240200Z 00000KT 9999 FEW020 30/25 Q1010 NOSIG
VTSS 240130Z VRB02KT 9999 FEW020 29/25 Q1010 NOSIG
VTSS 240100Z 00000KT 9999 FEW020 28/24 Q1010 NOSIG
VTSS 240030Z 00000KT 9999 FEW020 27/24 Q1010 NOSIG
VTSS 240000Z 00000KT 9999 FEW020 25/24 Q1009 NOSIG
VTSS 232330Z 00000KT 9999 FEW020 24/24 Q1009 NOSIG
VTSS 232300Z 00000KT 9999 FEW020 24/24 Q1009 NOSIG
VTSS 232230Z 00000KT 9999 FEW020 24/24 Q1008 NOSIG
VTSS 232200Z 00000KT 9999 FEW020 24/24 Q1008 NOSIG
VTSS 232130Z 00000KT 9999 FEW020 24/24 Q1008 NOSIG
VTSS 232100Z 00000KT 9999 FEW020 25/24 Q1007 NOSIG
VTSS 232030Z 00000KT 9999 FEW020 25/24 Q1007 NOSIG
VTSS 232000Z 00000KT 9999 FEW020 25/24 Q1007 NOSIG
VTSS 231930Z 00000KT 9999 FEW020 25/24 Q1007 NOSIG
VTSS 231900Z 00000KT 9999 FEW020 25/24 Q1007 NOSIG
VTSS 231830Z 00000KT 9999 FEW020 25/24 Q1007 NOSIG
VTSS 231800Z 00000KT 9999 FEW020 26/24 Q1008 NOSIG
VTSS 231730Z 00000KT 9999 FEW020 26/24 Q1008 NOSIG
VTSS 231700Z 00000KT 9999 FEW020 26/25 Q1008 NOSIG
VTSS 231630Z 00000KT 9999 FEW020 26/25 Q1008 NOSIG
VTSS 231600Z 00000KT 9999 FEW020 26/25 Q1008 NOSIG
VTSS 231530Z 00000KT 9999 FEW020 26/24 Q1008 NOSIG
VTSS 231500Z 24002KT 9999 FEW020 27/24 Q1008 NOSIG
VTSS 231430Z 26004KT 9999 FEW020 27/24 Q1007 NOSIG
VTSS 231400Z 24003KT 9999 FEW020 28/24 Q1007 NOSIG
VTSS 231330Z 23003KT 9999 FEW020 28/24 Q1007 NOSIG
VTSS 231300Z 23003KT 9999 FEW020 29/24 Q1006 NOSIG
VTSS 231230Z 23003KT 9999 FEW020 29/23 Q1006 NOSIG
VTSS 231200Z 24004KT 9999 FEW020 30/23 Q1005 NOSIG
VTSS 231130Z 25006KT 9999 FEW020 30/23 Q1005 NOSIG
VTSS 231100Z 25004KT 9999 FEW020 31/24 Q1005 NOSIG
TAF VTSS 241100Z 2412/2512 05005KT 9999 FEW020